Terminal Aerodrome Forecast
Issued by NWS

Current Version | Previous Version | Graphics & Text | Print | Product List | Glossary On
Versions: 1 2 3 4 5 6 7 8 9 10 11 12 13 14 15 16 17 18 19 20 21
000
FTUS41 KILN 261700
TAFLCK
TAF
KLCK 261720Z 2618/2718 22011G19KT P6SM SCT040 BKN250
     FM262100 22012G20KT P6SM VCTS BKN040CB
     FM262300 22007KT P6SM BKN040 OVC200
     FM270500 21006KT 3SM -SHRA VCTS BKN040CB OVC150
      TEMPO 2705/2709 2SM -TSRA OVC020CB
     FM271000 20006KT P6SM VCSH SCT035 OVC080
     FM271600 21010G18KT P6SM -SHRA VCTS BKN035CB=

USA.gov is the U.S. government's official web portal to all federal, state and local government web resources and services.